createdAt,value
2022-08-29T00:03:11.559Z,98923.64
2022-08-29T00:08:15.478Z,98925.50
2022-08-29T00:13:19.299Z,98925.45
2022-08-29T00:18:22.248Z,98927.58
2022-08-29T00:23:25.200Z,98932.63
2022-08-29T00:28:28.469Z,98931.73
2022-08-29T00:33:31.770Z,98930.36
2022-08-29T00:38:34.885Z,98923.41
2022-08-29T00:43:38.054Z,98920.91
2022-08-29T00:48:42.178Z,98920.72
2022-08-29T00:53:47.996Z,98917.88
2022-08-29T00:58:57.648Z,98923.90
2022-08-29T01:04:00.643Z,98920.89
2022-08-29T01:09:04.650Z,98927.91
2022-08-29T01:14:08.266Z,98927.34
2022-08-29T01:19:39.787Z,98928.66
2022-08-29T01:24:50.770Z,98931.34
2022-08-29T01:29:53.784Z,98931.20
2022-08-29T01:34:56.817Z,98922.08
2022-08-29T01:39:59.864Z,98927.02
2022-08-29T01:45:05.573Z,98928.18
2022-08-29T01:50:15.461Z,98931.43
2022-08-29T01:55:18.349Z,98933.78
2022-08-29T02:00:22.219Z,98939.93
2022-08-29T02:05:25.150Z,98941.65
2022-08-29T02:10:28.346Z,98942.35
2022-08-29T02:15:32.050Z,98947.36
2022-08-29T02:20:34.990Z,98946.23
2022-08-29T02:25:44.428Z,98940.92
2022-08-29T02:30:50.536Z,98945.80
2022-08-29T02:35:59.710Z,98943.10
2022-08-29T02:41:04.388Z,98947.16
2022-08-29T02:46:08.119Z,98947.40
2022-08-29T02:51:17.856Z,98950.27
2022-08-29T02:56:21.442Z,98953.50
2022-08-29T03:01:26.241Z,98958.56
2022-08-29T03:06:29.814Z,98955.83
2022-08-29T03:11:32.912Z,98959.31
2022-08-29T03:16:36.089Z,98959.44
2022-08-29T03:21:39.241Z,98963.00
2022-08-29T03:26:42.082Z,98959.80
2022-08-29T03:31:45.088Z,98965.70
2022-08-29T03:36:47.993Z,98967.20
2022-08-29T03:41:51.348Z,98971.52
2022-08-29T03:46:54.596Z,98973.93
2022-08-29T03:51:57.764Z,98983.58
2022-08-29T03:57:00.693Z,98988.08
2022-08-29T04:02:04.101Z,98993.44
2022-08-29T04:07:07.068Z,98998.70
2022-08-29T04:12:11.755Z,99005.81
2022-08-29T04:17:14.633Z,99002.55
2022-08-29T04:22:17.581Z,99016.62
2022-08-29T04:27:20.615Z,99023.36
2022-08-29T04:32:23.497Z,99028.34
2022-08-29T04:37:26.392Z,99040.85
2022-08-29T04:42:30.249Z,99043.34
2022-08-29T04:47:36.233Z,99046.97
2022-08-29T04:52:39.377Z,99044.42
2022-08-29T04:57:42.423Z,99047.04
2022-08-29T05:02:45.773Z,99052.83
2022-08-29T05:07:48.745Z,99065.52
2022-08-29T05:12:51.714Z,99072.50
2022-08-29T05:17:55.151Z,99073.13
2022-08-29T05:22:58.543Z,99081.17
2022-08-29T05:28:01.695Z,99081.75
2022-08-29T05:33:06.247Z,99084.89
2022-08-29T05:38:10.148Z,99092.73
2022-08-29T05:43:13.131Z,99099.66
2022-08-29T05:48:18.423Z,99098.73
2022-08-29T05:53:21.501Z,99100.73
2022-08-29T05:58:24.563Z,99100.06
2022-08-29T06:03:27.659Z,99106.73
2022-08-29T06:08:30.648Z,99108.69
2022-08-29T06:13:33.503Z,99114.74
2022-08-29T06:18:36.488Z,99118.75
2022-08-29T06:23:40.684Z,99123.27
2022-08-29T06:28:46.452Z,99130.81
2022-08-29T06:33:53.403Z,99135.88
2022-08-29T06:39:00.844Z,99140.78
2022-08-29T06:44:04.876Z,99145.09
2022-08-29T06:49:11.581Z,99149.55
2022-08-29T06:54:16.315Z,99155.20
2022-08-29T06:59:20.380Z,99162.23
2022-08-29T07:04:26.448Z,99166.75
2022-08-29T07:09:32.682Z,99170.09
2022-08-29T07:14:35.680Z,99172.15
2022-08-29T07:19:38.757Z,99174.98
2022-08-29T07:24:44.006Z,99175.04
2022-08-29T07:29:50.559Z,99179.67
2022-08-29T07:34:56.070Z,99180.36
2022-08-29T07:39:59.402Z,99186.05
2022-08-29T07:45:04.394Z,99189.77
2022-08-29T07:50:09.689Z,99190.52
2022-08-29T07:55:12.775Z,99189.02
2022-08-29T08:00:15.926Z,99189.75
2022-08-29T08:05:18.987Z,99194.83
2022-08-29T08:10:22.095Z,99210.02
2022-08-29T08:15:24.982Z,99214.34
2022-08-29T08:20:27.907Z,99214.95
2022-08-29T08:25:32.102Z,99217.73
2022-08-29T08:30:35.831Z,99220.55
2022-08-29T08:35:41.834Z,99225.34
2022-08-29T08:41:00.947Z,99224.70
2022-08-29T08:46:04.294Z,99222.39
2022-08-29T08:51:18.068Z,99231.06
2022-08-29T08:56:46.555Z,99230.46
2022-08-29T09:02:07.162Z,99229.78
2022-08-29T09:07:44.655Z,99229.59
2022-08-29T09:13:24.687Z,99227.88
2022-08-29T09:18:41.277Z,99230.32
2022-08-29T09:23:47.713Z,99228.52
2022-08-29T09:28:51.045Z,99232.27
2022-08-29T09:34:07.835Z,99232.04
2022-08-29T09:39:28.564Z,99229.96
2022-08-29T09:44:34.582Z,99229.77
2022-08-29T09:49:40.135Z,99228.23
2022-08-29T09:54:44.728Z,99221.73
2022-08-29T10:00:04.770Z,99220.48
2022-08-29T10:05:13.251Z,99219.29
2022-08-29T10:10:22.317Z,99222.77
2022-08-29T10:15:50.419Z,99216.02
2022-08-29T10:20:56.854Z,99215.39
2022-08-29T10:26:09.541Z,99219.44
2022-08-29T10:31:23.091Z,99216.17
2022-08-29T10:36:33.088Z,99211.23
2022-08-29T10:41:50.726Z,99216.34
2022-08-29T10:47:02.330Z,99217.20
2022-08-29T10:52:47.297Z,99213.02
2022-08-29T10:58:17.840Z,99206.71
2022-08-29T11:03:53.459Z,99206.86
2022-08-29T11:09:26.339Z,99209.94
2022-08-29T11:14:35.783Z,99216.46
2022-08-29T11:20:00.365Z,99212.22
2022-08-29T11:25:10.347Z,99207.60
2022-08-29T11:30:22.091Z,99205.55
2022-08-29T11:35:33.589Z,99203.64
2022-08-29T11:46:28.851Z,99201.88
2022-08-29T11:51:38.003Z,99192.05
2022-08-29T11:56:41.538Z,99185.95
2022-08-29T12:01:44.637Z,99191.14
2022-08-29T12:07:08.355Z,99193.83
2022-08-29T12:12:14.348Z,99196.98
2022-08-29T12:17:17.185Z,99199.45
2022-08-29T12:22:50.369Z,99203.89
2022-08-29T12:28:05.977Z,99200.59
2022-08-29T12:33:27.578Z,99203.35
2022-08-29T12:38:50.151Z,99205.36
2022-08-29T12:43:59.993Z,99202.58
2022-08-29T12:49:15.908Z,99204.52
2022-08-29T12:54:33.333Z,99196.23
2022-08-29T12:59:36.329Z,99194.13
2022-08-29T13:04:44.383Z,99184.43
2022-08-29T13:09:54.918Z,99189.31
2022-08-29T13:15:17.823Z,99194.09
2022-08-29T13:20:42.794Z,99191.19
2022-08-29T13:25:50.670Z,99190.19
2022-08-29T13:31:09.244Z,99191.11
2022-08-29T13:36:27.439Z,99183.77
2022-08-29T13:41:30.472Z,99180.90
2022-08-29T13:46:33.709Z,99177.44
2022-08-29T13:51:36.555Z,99173.86
2022-08-29T13:56:39.632Z,99170.51
2022-08-29T14:07:06.121Z,99170.23
2022-08-29T14:12:10.033Z,99171.55
2022-08-29T14:17:18.212Z,99164.57
2022-08-29T14:22:21.823Z,99168.29
2022-08-29T14:27:25.073Z,99169.81
2022-08-29T14:32:27.987Z,99169.17
2022-08-29T14:37:30.881Z,99179.85
2022-08-29T14:42:33.787Z,99177.80
2022-08-29T14:47:37.266Z,99177.62
2022-08-29T14:52:41.483Z,99173.25
2022-08-29T14:57:44.774Z,99167.92
2022-08-29T15:02:48.144Z,99168.05
2022-08-29T15:07:51.181Z,99166.63
2022-08-29T15:12:54.226Z,99164.66
2022-08-29T15:17:59.596Z,99163.42
2022-08-29T15:23:02.795Z,99160.38
2022-08-29T15:28:06.383Z,99157.73
2022-08-29T15:33:09.582Z,99155.84
2022-08-29T15:38:12.505Z,99155.56
2022-08-29T15:43:15.483Z,99153.92
2022-08-29T15:48:18.525Z,99150.80
2022-08-29T15:53:22.122Z,99150.09
2022-08-29T15:58:25.302Z,99151.14
2022-08-29T16:03:28.389Z,99153.34
2022-08-29T16:08:31.508Z,99154.29
2022-08-29T16:13:34.499Z,99153.74
2022-08-29T16:18:37.423Z,99151.25
2022-08-29T16:23:40.507Z,99147.49
2022-08-29T16:28:43.454Z,99147.45
2022-08-29T16:33:46.864Z,99149.19
2022-08-29T16:38:49.819Z,99144.58
2022-08-29T16:43:53.499Z,99138.96
2022-08-29T16:48:56.460Z,99143.40
2022-08-29T16:54:00.238Z,99144.70
2022-08-29T16:59:04.614Z,99149.11
2022-08-29T17:04:12.872Z,99152.06
2022-08-29T17:09:18.284Z,99157.73
2022-08-29T17:14:23.783Z,99163.34
2022-08-29T17:19:26.852Z,99168.55
2022-08-29T17:24:29.758Z,99171.34
2022-08-29T17:29:32.727Z,99172.80
2022-08-29T17:34:38.056Z,99176.54
2022-08-29T17:39:40.930Z,99181.05
2022-08-29T17:44:44.079Z,99189.03
2022-08-29T17:49:48.614Z,99194.89
2022-08-29T17:54:51.474Z,99199.27
2022-08-29T17:59:54.729Z,99202.55
2022-08-29T18:04:58.714Z,99206.58
2022-08-29T18:10:03.500Z,99213.85
2022-08-29T18:15:09.470Z,99221.58
2022-08-29T18:20:15.742Z,99230.21
2022-08-29T18:25:22.486Z,99234.95
2022-08-29T18:30:26.249Z,99240.70
2022-08-29T18:35:29.545Z,99247.13
2022-08-29T18:40:35.383Z,99248.79
2022-08-29T18:45:43.062Z,99256.36
2022-08-29T18:50:46.487Z,99258.23
2022-08-29T18:55:52.677Z,99261.58
2022-08-29T19:00:56.567Z,99268.19
2022-08-29T19:06:00.014Z,99276.27
2022-08-29T19:11:06.729Z,99286.56
2022-08-29T19:16:10.136Z,99286.95
2022-08-29T19:21:13.208Z,99295.20
2022-08-29T19:26:22.515Z,99303.45
2022-08-29T19:31:27.754Z,99307.67
2022-08-29T19:36:30.870Z,99322.58
2022-08-29T19:41:34.801Z,99326.07
2022-08-29T19:46:39.233Z,99325.21
2022-08-29T19:51:42.913Z,99321.34
2022-08-29T19:56:46.879Z,99325.73
2022-08-29T20:01:50.045Z,99329.35
2022-08-29T20:06:57.291Z,99333.36
2022-08-29T20:12:04.984Z,99336.79
2022-08-29T20:17:09.450Z,99342.20
2022-08-29T20:22:13.095Z,99339.48
2022-08-29T20:27:16.127Z,99342.23
2022-08-29T20:32:19.221Z,99348.73
2022-08-29T20:37:23.980Z,99352.43
2022-08-29T20:42:27.238Z,99351.20
2022-08-29T20:47:30.123Z,99350.80
2022-08-29T20:52:32.996Z,99345.20
2022-08-29T20:57:39.181Z,99347.61
2022-08-29T21:03:02.311Z,99345.80
2022-08-29T21:08:05.542Z,99346.24
2022-08-29T21:13:11.664Z,99341.56
2022-08-29T21:18:16.250Z,99343.73
2022-08-29T21:23:25.154Z,99341.05
2022-08-29T21:28:31.345Z,99342.24
2022-08-29T21:33:44.443Z,99342.36
2022-08-29T21:38:51.585Z,99343.17
2022-08-29T21:43:54.816Z,99350.33
2022-08-29T21:49:00.593Z,99359.20
2022-08-29T21:54:04.572Z,99363.20
2022-08-29T21:59:08.174Z,99363.41
2022-08-29T22:04:19.299Z,99362.79
2022-08-29T22:09:32.835Z,99355.84
2022-08-29T22:14:54.472Z,99354.98
2022-08-29T22:19:57.402Z,99360.73
2022-08-29T22:25:00.237Z,99365.52
2022-08-29T22:30:05.182Z,99360.88
2022-08-29T22:35:10.030Z,99362.08
2022-08-29T22:40:16.692Z,99365.83
2022-08-29T22:45:19.961Z,99361.55
2022-08-29T22:50:25.057Z,99359.73
2022-08-29T23:00:30.838Z,99362.48
2022-08-29T23:05:33.807Z,99360.27
2022-08-29T23:10:36.843Z,99361.38
2022-08-29T23:15:39.764Z,99361.71
2022-08-29T23:20:42.640Z,99366.94
2022-08-29T23:25:49.643Z,99360.84
2022-08-29T23:30:52.949Z,99361.40
2022-08-29T23:35:56.219Z,99364.31
2022-08-29T23:40:59.313Z,99363.11
2022-08-29T23:46:03.563Z,99361.49
2022-08-29T23:51:09.709Z,99360.36
2022-08-29T23:56:18.659Z,99362.39
